메인 페이지
METAR-TAF:

METAR-TAF

공항 :

Childress, 텍사스, 미국

위도: 34-25-39N, 경도: 100-17-00W, 고도: 595m

현재 날씨관측

예보는 14분 전, 22:32시(UTC)에 발표되었습니다.
북북동10kt
온도 6°C
습도 87%
기압 1017 hPa
시정: 4.0km
고도 700ft 상공 구름 많음
고도 1700ft 상공 흐림
약한비, 박무

METAR: KCDS 252232Z AUTO 02010KT 2 1/2SM -RA BR BKN007 OVC017 06/04 A3004 RMK AO2 P0000 T00610044

시각: 17:46 (22:46 UTC)

예보

예보는 4 시간 59분 전, 17:47시(UTC)에 발표되었습니다.
예보 대상 시간: 25일 18시부터 26일 18시까지 (UTC)
북북동14kt
시정: 4.8km
고도 400ft 상공 구름 많음
고도 800ft 상공 흐림
약한이슬비, 박무
26일 1200시부터 (UTC)
19kt
시정: 4.8km
고도 300ft 상공 구름 보통
고도 500ft 상공 흐림
(약한) 결빙, 이슬비

TAF: KCDS 251747Z 2518/2618 02014KT 3SM -DZ BR BKN004 OVC008 FM261200 01019KT 3SM -FZDZ SCT003 OVC005

4,000개 이상의 공항 관측 자료 및 예보 (METAR 및 TAF 보고).

지도상에서 검색 가능한 기상관측소가 노란 점과 빨간 점으로 표시되어 있습니다.

기상관측소 명을 보려면 표시 위로 마우스를 이동하세요.

날씨 관측과 예보를 보려면 클릭하세요.

지도 변경 : 확대하려면 엑스 표시가 있는 녹색 버튼, 축소하려면 빼기 표시가 있는 녹색 버튼, 다음 페이지의 지도를 보려면 녹색 화살표를 클릭하세요.


METAR-TAF: